Wadena, MN

7:10 AM CDT on July 26, 2017 (GMT -0500)
Wadena Municipal

Weather History for KADC - August, 2014

Change the Weather History Date:

Monday, August 4, 2014

  Actual Average Record
Temperature  
Mean Temperature 63 °F -  
Max Temperature 75 °F 78 °F 102 °F (1947)
Min Temperature 51 °F 54 °F 40 °F (1971)
Degree Days  
Heating Degree Days 2    
Growing Degree Days 13 (Base 50)    
Moisture  
Dew Point 53 °F    
Average Humidity 69    
Maximum Humidity 94    
Minimum Humidity 41    
Precipitation  
Precipitation 0.00 in - - ()
Sea Level Pressure  
Sea Level Pressure 30.13 in    
Wind  
Wind Speed 5 mph (NNE)    
Max Wind Speed 10 mph    
Max Gust Speed -    
Visibility 10 miles    
Events      
Averages and records for this station are not official NWS values.
T = Trace of Precipitation, MM = Missing Value Source: NWS Daily Summary

Daily Weather History Graph

Daily Weather History Graph

Search for Another Location

Airport or City:

Trip Planner

Search our weather history database for the weather conditions in past years. The results will help you decide how hot, cold, wet, or windy it might be!

Date:

Astronomy

Aug. 04, 2014 Rise Set
Actual Time 6:05 AM CDT 8:47 PM CDT
Civil Twilight 5:31 AM CDT 9:21 PM CDT
Nautical Twilight 4:47 AM CDT 10:05 PM CDT
Astronomical Twilight 3:56 AM CDT 10:55 PM CDT
Moon 2:59 PM CDT (8/4) 12:16 AM CDT (8/4)
Length of Visible Light 15h 50m
Length of Day
14h 41m
First Quarter, 57% of the Moon is Illuminated
Aug 4
First Quarter
Aug 10
Full
Aug 17
Last Quarter
Aug 25
New
Sep 2
First Quarter

Hourly Weather History & Observations

Time (CDT) Temp. Dew Point Humidity Pressure Visibility Wind Dir Wind Speed Gust Speed Precip Events Conditions
12:15 AM 57.2 °F 53.6 °F 88% 30.13 in 10.0 mi North 4.6 mph - N/A   Clear
12:35 AM 57.2 °F 51.8 °F 82% 30.13 in 10.0 mi North 5.8 mph - N/A   Clear
1:15 AM 57.2 °F 51.8 °F 82% 30.14 in 10.0 mi North 5.8 mph - N/A   Clear
1:35 AM 57.2 °F 51.8 °F 82% 30.14 in 10.0 mi North 4.6 mph - N/A   Clear
1:53 AM 55.4 °F 51.8 °F 88% 30.14 in 10.0 mi NNE 4.6 mph - N/A   Clear
2:15 AM 55.4 °F 51.8 °F 88% 30.14 in 10.0 mi NNE 4.6 mph - N/A   Clear
2:35 AM 57.2 °F 51.8 °F 82% 30.14 in 10.0 mi NNE 4.6 mph - N/A   Clear
2:53 AM 57.2 °F 51.8 °F 82% 30.14 in 10.0 mi NNE 4.6 mph - N/A   Clear
3:15 AM 55.4 °F 51.8 °F 88% 30.13 in 10.0 mi North 4.6 mph - N/A   Clear
3:35 AM 55.4 °F 51.8 °F 88% 30.13 in 10.0 mi NNE 3.5 mph - N/A   Clear
4:15 AM 53.6 °F 51.8 °F 94% 30.13 in 10.0 mi NNE 4.6 mph - N/A   Clear
4:35 AM 53.6 °F 51.8 °F 94% 30.14 in 10.0 mi Calm Calm - N/A   Clear
5:14 AM 51.8 °F 50.0 °F 94% 30.13 in 10.0 mi Calm Calm - N/A   Clear
5:34 AM 51.8 °F 50.0 °F 94% 30.14 in 10.0 mi NNE 4.6 mph - N/A   Clear
5:53 AM 51.8 °F 50.0 °F 94% 30.13 in 10.0 mi NNE 5.8 mph - N/A   Clear
6:15 AM 51.8 °F 50.0 °F 94% 30.14 in 10.0 mi North 3.5 mph - N/A   Clear
6:35 AM 51.8 °F 50.0 °F 94% 30.14 in 10.0 mi North 4.6 mph - N/A   Clear
7:15 AM 53.6 °F 51.8 °F 94% 30.15 in 10.0 mi NNE 3.5 mph - N/A   Clear
7:34 AM 55.4 °F 53.6 °F 94% 30.15 in 10.0 mi NNE 3.5 mph - N/A   Clear
7:53 AM 57.2 °F 53.6 °F 88% 30.15 in 10.0 mi NNE 4.6 mph - N/A   Clear
8:15 AM 59.0 °F 53.6 °F 82% 30.15 in 10.0 mi NNE 4.6 mph - N/A   Clear
8:34 AM 60.8 °F 53.6 °F 77% 30.15 in 10.0 mi NE 5.8 mph - N/A   Clear
8:51 AM 60.8 °F 53.6 °F 77% 30.15 in 10.0 mi NE 4.6 mph - N/A   Clear
9:14 AM 62.6 °F 53.6 °F 72% 30.15 in 10.0 mi ENE 6.9 mph - N/A   Clear
9:34 AM 64.4 °F 53.6 °F 68% 30.15 in 10.0 mi NE 8.1 mph - N/A   Clear
9:53 AM 66.2 °F 53.6 °F 64% 30.15 in 10.0 mi ENE 6.9 mph - N/A   Clear
10:15 AM 68.0 °F 53.6 °F 60% 30.15 in 10.0 mi NNE 8.1 mph - N/A   Clear
10:34 AM 69.8 °F 51.8 °F 53% 30.15 in 10.0 mi NE 8.1 mph - N/A   Clear
10:53 AM 69.8 °F 53.6 °F 56% 30.15 in 10.0 mi NNE 9.2 mph - N/A   Clear
11:15 AM 69.8 °F 51.8 °F 53% 30.15 in 10.0 mi ENE 8.1 mph - N/A   Clear
11:34 AM 69.8 °F 53.6 °F 56% 30.15 in 10.0 mi ENE 4.6 mph - N/A   Clear
11:53 AM 71.6 °F 51.8 °F 50% 30.15 in 10.0 mi NE 4.6 mph - N/A   Clear
12:15 PM 71.6 °F 51.8 °F 50% 30.15 in 10.0 mi ENE 8.1 mph - N/A   Clear
12:35 PM 71.6 °F 51.8 °F 50% 30.14 in 10.0 mi NE 6.9 mph - N/A   Clear
12:53 PM 71.6 °F 51.8 °F 50% 30.14 in 10.0 mi NNE 9.2 mph - N/A   Clear
1:14 PM 71.6 °F 53.6 °F 53% 30.13 in 10.0 mi NNE 5.8 mph - N/A   Clear
1:35 PM 71.6 °F 53.6 °F 53% 30.13 in 10.0 mi ENE 9.2 mph - N/A   Clear
1:53 PM 73.4 °F 53.6 °F 50% 30.12 in 10.0 mi NNE 8.1 mph - N/A   Clear
2:14 PM 73.4 °F 53.6 °F 50% 30.12 in 10.0 mi NE 4.6 mph - N/A   Clear
2:34 PM 73.4 °F 53.6 °F 50% 30.12 in 10.0 mi NNW 6.9 mph - N/A   Clear
2:53 PM 73.4 °F 53.6 °F 50% 30.12 in 10.0 mi NNE 6.9 mph - N/A   Clear
3:15 PM 73.4 °F 51.8 °F 47% 30.11 in 10.0 mi NNE 8.1 mph - N/A   Clear
3:35 PM 75.2 °F 53.6 °F 47% 30.11 in 10.0 mi NNE 5.8 mph - N/A   Clear
4:15 PM 75.2 °F 51.8 °F 44% 30.10 in 10.0 mi North 9.2 mph - N/A   Clear
4:35 PM 75.2 °F 53.6 °F 47% 30.10 in 10.0 mi NNE 8.1 mph - N/A   Clear
4:52 PM 75.2 °F 51.8 °F 44% 30.10 in 10.0 mi North 9.2 mph - N/A   Clear
5:14 PM 75.2 °F 51.8 °F 44% 30.10 in 10.0 mi NNE 9.2 mph - N/A   Clear
5:34 PM 75.2 °F 51.8 °F 44% 30.11 in 10.0 mi NNE 10.4 mph - N/A   Clear
5:52 PM 73.4 °F 48.2 °F 41% 30.10 in 10.0 mi NNE 8.1 mph - N/A   Clear
6:14 PM 73.4 °F 51.8 °F 47% 30.11 in 10.0 mi NNE 6.9 mph - N/A   Clear
6:34 PM 73.4 °F 53.6 °F 50% 30.10 in 10.0 mi ENE 6.9 mph - N/A   Clear
6:52 PM 73.4 °F 53.6 °F 50% 30.10 in 10.0 mi NE 5.8 mph - N/A   Clear
7:14 PM 71.6 °F 53.6 °F 53% 30.10 in 10.0 mi NE 4.6 mph - N/A   Clear
7:34 PM 71.6 °F 53.6 °F 53% 30.10 in 10.0 mi NE 5.8 mph - N/A   Clear
7:53 PM 69.8 °F 53.6 °F 56% 30.11 in 10.0 mi NE 4.6 mph - N/A   Clear
8:07 PM 68.0 °F 53.6 °F 60% 30.11 in 10.0 mi NE 3.5 mph - N/A   Clear
8:35 PM 66.2 °F 53.6 °F 64% 30.11 in 10.0 mi Calm Calm - N/A   Clear
8:53 PM 64.4 °F 53.6 °F 68% 30.12 in 10.0 mi Calm Calm - N/A   Clear
9:15 PM 60.8 °F 53.6 °F 77% 30.12 in 10.0 mi Calm Calm - N/A   Clear
9:34 PM 60.8 °F 53.6 °F 77% 30.13 in 10.0 mi Calm Calm - N/A   Clear
9:52 PM 60.8 °F 53.6 °F 77% 30.13 in 10.0 mi Calm Calm - N/A   Clear
10:34 PM 57.2 °F 53.6 °F 88% 30.13 in 10.0 mi NNE 3.5 mph - N/A   Clear
10:52 PM 57.2 °F 53.6 °F 88% 30.13 in 10.0 mi NNE 3.5 mph - N/A   Clear
11:14 PM 57.2 °F 53.6 °F 88% 30.13 in 10.0 mi NNE 3.5 mph - N/A   Clear
11:35 PM 57.2 °F 53.6 °F 88% 30.13 in 10.0 mi Calm Calm - N/A   Clear
11:52 PM 57.2 °F 53.6 °F 88% 30.14 in 10.0 mi Calm Calm - N/A   Clear